sensor_id;sensor_type;location;lat;lon;timestamp;temperature;humidity
17381;DHT22;8808;52.478;13.378;2024-01-16T00:00:58;0.80;99.90
17381;DHT22;8808;52.478;13.378;2024-01-16T00:03:25;0.70;99.90
17381;DHT22;8808;52.478;13.378;2024-01-16T00:05:52;0.70;99.90
17381;DHT22;8808;52.478;13.378;2024-01-16T00:08:19;0.60;99.90
17381;DHT22;8808;52.478;13.378;2024-01-16T00:10:46;0.60;99.90
17381;DHT22;8808;52.478;13.378;2024-01-16T00:13:13;0.40;99.90
17381;DHT22;8808;52.478;13.378;2024-01-16T00:15:40;0.50;99.90
17381;DHT22;8808;52.478;13.378;2024-01-16T00:18:09;0.50;99.90
17381;DHT22;8808;52.478;13.378;2024-01-16T00:20:36;0.30;99.90
17381;DHT22;8808;52.478;13.378;2024-01-16T00:23:03;0.50;99.90
17381;DHT22;8808;52.478;13.378;2024-01-16T00:25:30;0.30;99.90
17381;DHT22;8808;52.478;13.378;2024-01-16T00:27:57;0.40;99.90
17381;DHT22;8808;52.478;13.378;2024-01-16T00:30:24;0.40;99.90
17381;DHT22;8808;52.478;13.378;2024-01-16T00:32:51;0.60;99.90
17381;DHT22;8808;52.478;13.378;2024-01-16T00:35:19;0.40;99.90
17381;DHT22;8808;52.478;13.378;2024-01-16T00:37:46;0.40;99.90
17381;DHT22;8808;52.478;13.378;2024-01-16T00:40:13;0.50;99.90
17381;DHT22;8808;52.478;13.378;2024-01-16T00:42:40;0.40;99.90
17381;DHT22;8808;52.478;13.378;2024-01-16T00:45:07;0.40;99.90
17381;DHT22;8808;52.478;13.378;2024-01-16T00:47:34;0.20;99.90
17381;DHT22;8808;52.478;13.378;2024-01-16T00:50:01;0.10;99.90
17381;DHT22;8808;52.478;13.378;2024-01-16T00:52:29;0.00;99.90
17381;DHT22;8808;52.478;13.378;2024-01-16T00:54:56;0.00;99.90
17381;DHT22;8808;52.478;13.378;2024-01-16T00:57:23;0.00;99.90
17381;DHT22;8808;52.478;13.378;2024-01-16T00:59:50;0.00;99.90
17381;DHT22;8808;52.478;13.378;2024-01-16T01:02:17;0.00;99.90
17381;DHT22;8808;52.478;13.378;2024-01-16T01:04:44;0.00;99.90
17381;DHT22;8808;52.478;13.378;2024-01-16T01:07:13;0.10;99.90
17381;DHT22;8808;52.478;13.378;2024-01-16T01:09:41;0.10;99.90
17381;DHT22;8808;52.478;13.378;2024-01-16T01:12:08;0.00;99.90
17381;DHT22;8808;52.478;13.378;2024-01-16T01:14:35;0.10;99.90
17381;DHT22;8808;52.478;13.378;2024-01-16T01:17:03;0.10;99.90
17381;DHT22;8808;52.478;13.378;2024-01-16T01:19:30;0.00;99.90
17381;DHT22;8808;52.478;13.378;2024-01-16T01:21:57;-0.20;99.90
17381;DHT22;8808;52.478;13.378;2024-01-16T01:24:24;-0.30;99.90
17381;DHT22;8808;52.478;13.378;2024-01-16T01:26:52;-0.20;99.90
17381;DHT22;8808;52.478;13.378;2024-01-16T01:29:19;-0.20;99.90
17381;DHT22;8808;52.478;13.378;2024-01-16T01:31:46;-0.20;99.90
17381;DHT22;8808;52.478;13.378;2024-01-16T01:34:14;-0.30;99.90
17381;DHT22;8808;52.478;13.378;2024-01-16T01:36:41;-0.50;99.90
17381;DHT22;8808;52.478;13.378;2024-01-16T01:39:09;-0.40;99.90
17381;DHT22;8808;52.478;13.378;2024-01-16T01:41:37;-0.50;99.90
17381;DHT22;8808;52.478;13.378;2024-01-16T01:44:06;-0.40;99.90
17381;DHT22;8808;52.478;13.378;2024-01-16T01:46:33;-0.40;99.90
17381;DHT22;8808;52.478;13.378;2024-01-16T01:49:01;-0.50;99.90
17381;DHT22;8808;52.478;13.378;2024-01-16T01:51:29;-0.60;99.90
17381;DHT22;8808;52.478;13.378;2024-01-16T01:53:56;-0.60;99.90
17381;DHT22;8808;52.478;13.378;2024-01-16T01:56:24;-0.60;99.90
17381;DHT22;8808;52.478;13.378;2024-01-16T01:58:53;-0.70;99.90
17381;DHT22;8808;52.478;13.378;2024-01-16T02:03:59;-0.70;99.90
17381;DHT22;8808;52.478;13.378;2024-01-16T02:06:26;-0.80;99.90
17381;DHT22;8808;52.478;13.378;2024-01-16T02:08:53;-0.60;99.90
17381;DHT22;8808;52.478;13.378;2024-01-16T02:11:21;-0.70;99.90
17381;DHT22;8808;52.478;13.378;2024-01-16T02:13:48;-0.60;99.90
17381;DHT22;8808;52.478;13.378;2024-01-16T02:16:18;-0.70;99.90
17381;DHT22;8808;52.478;13.378;2024-01-16T02:18:46;-0.80;99.90
17381;DHT22;8808;52.478;13.378;2024-01-16T02:21:17;-0.70;99.90
17381;DHT22;8808;52.478;13.378;2024-01-16T02:23:46;-0.80;99.90
17381;DHT22;8808;52.478;13.378;2024-01-16T02:26:14;-0.80;99.90
17381;DHT22;8808;52.478;13.378;2024-01-16T02:28:41;-0.80;99.90
17381;DHT22;8808;52.478;13.378;2024-01-16T02:31:08;-0.90;99.90
17381;DHT22;8808;52.478;13.378;2024-01-16T02:33:35;-0.80;99.90
17381;DHT22;8808;52.478;13.378;2024-01-16T02:36:03;-0.70;99.90
17381;DHT22;8808;52.478;13.378;2024-01-16T02:38:30;-0.70;99.90
17381;DHT22;8808;52.478;13.378;2024-01-16T02:40:58;-0.60;99.90
17381;DHT22;8808;52.478;13.378;2024-01-16T02:43:24;-0.70;99.90
17381;DHT22;8808;52.478;13.378;2024-01-16T02:45:52;-0.60;99.90
17381;DHT22;8808;52.478;13.378;2024-01-16T02:48:19;-0.70;99.90
17381;DHT22;8808;52.478;13.378;2024-01-16T02:50:47;-0.60;99.90
17381;DHT22;8808;52.478;13.378;2024-01-16T02:53:14;-0.60;99.90
17381;DHT22;8808;52.478;13.378;2024-01-16T02:55:41;-0.70;99.90
17381;DHT22;8808;52.478;13.378;2024-01-16T02:58:09;-0.90;99.90
17381;DHT22;8808;52.478;13.378;2024-01-16T03:00:36;-0.90;99.90
17381;DHT22;8808;52.478;13.378;2024-01-16T03:03:04;-0.90;99.90
17381;DHT22;8808;52.478;13.378;2024-01-16T03:05:31;-0.90;99.90
17381;DHT22;8808;52.478;13.378;2024-01-16T03:07:58;-1.00;99.90
17381;DHT22;8808;52.478;13.378;2024-01-16T03:10:25;-1.00;99.90
17381;DHT22;8808;52.478;13.378;2024-01-16T03:12:52;-1.00;99.90
17381;DHT22;8808;52.478;13.378;2024-01-16T03:15:20;-1.10;99.90
17381;DHT22;8808;52.478;13.378;2024-01-16T03:17:47;-1.20;99.90
17381;DHT22;8808;52.478;13.378;2024-01-16T03:20:15;-1.00;99.90
17381;DHT22;8808;52.478;13.378;2024-01-16T03:22:42;-0.90;99.90
17381;DHT22;8808;52.478;13.378;2024-01-16T03:25:10;-0.90;99.90
17381;DHT22;8808;52.478;13.378;2024-01-16T03:27:37;-0.80;99.90
17381;DHT22;8808;52.478;13.378;2024-01-16T03:30:05;-0.80;99.90
17381;DHT22;8808;52.478;13.378;2024-01-16T03:32:35;-0.60;99.90
17381;DHT22;8808;52.478;13.378;2024-01-16T03:35:02;-0.50;99.90
17381;DHT22;8808;52.478;13.378;2024-01-16T03:37:29;-0.50;99.90
17381;DHT22;8808;52.478;13.378;2024-01-16T03:39:56;-0.60;99.90
17381;DHT22;8808;52.478;13.378;2024-01-16T03:42:23;-0.50;99.90
17381;DHT22;8808;52.478;13.378;2024-01-16T03:44:50;-0.50;99.90
17381;DHT22;8808;52.478;13.378;2024-01-16T03:47:17;-0.30;99.90
17381;DHT22;8808;52.478;13.378;2024-01-16T03:49:46;-0.30;99.90
17381;DHT22;8808;52.478;13.378;2024-01-16T03:52:13;-0.30;99.90
17381;DHT22;8808;52.478;13.378;2024-01-16T03:54:40;-0.40;99.90
17381;DHT22;8808;52.478;13.378;2024-01-16T03:57:07;-0.50;99.90
17381;DHT22;8808;52.478;13.378;2024-01-16T03:59:36;-0.50;99.90
17381;DHT22;8808;52.478;13.378;2024-01-16T04:02:03;-0.50;99.90
17381;DHT22;8808;52.478;13.378;2024-01-16T04:04:30;-0.60;99.90
17381;DHT22;8808;52.478;13.378;2024-01-16T04:06:59;-0.60;99.90
17381;DHT22;8808;52.478;13.378;2024-01-16T04:09:26;-0.50;99.90
17381;DHT22;8808;52.478;13.378;2024-01-16T04:11:53;-0.50;99.90
17381;DHT22;8808;52.478;13.378;2024-01-16T04:14:20;-0.70;99.90
17381;DHT22;8808;52.478;13.378;2024-01-16T04:16:47;-0.60;99.90
17381;DHT22;8808;52.478;13.378;2024-01-16T04:19:14;-0.60;99.90
17381;DHT22;8808;52.478;13.378;2024-01-16T04:21:41;-0.50;99.90
17381;DHT22;8808;52.478;13.378;2024-01-16T04:24:09;-0.50;99.90
17381;DHT22;8808;52.478;13.378;2024-01-16T04:26:36;-0.50;99.90
17381;DHT22;8808;52.478;13.378;2024-01-16T04:29:04;-0.50;99.90
17381;DHT22;8808;52.478;13.378;2024-01-16T04:31:32;-0.50;99.90
17381;DHT22;8808;52.478;13.378;2024-01-16T04:33:59;-0.40;99.90
17381;DHT22;8808;52.478;13.378;2024-01-16T04:36:26;-0.40;99.90
17381;DHT22;8808;52.478;13.378;2024-01-16T04:38:53;-0.50;99.90
17381;DHT22;8808;52.478;13.378;2024-01-16T04:41:21;-0.60;99.90
17381;DHT22;8808;52.478;13.378;2024-01-16T04:43:48;-0.60;99.90
17381;DHT22;8808;52.478;13.378;2024-01-16T04:46:15;-0.60;99.90
17381;DHT22;8808;52.478;13.378;2024-01-16T04:48:43;-0.70;99.90
17381;DHT22;8808;52.478;13.378;2024-01-16T04:51:10;-0.70;99.90
17381;DHT22;8808;52.478;13.378;2024-01-16T04:53:36;-0.70;99.90
17381;DHT22;8808;52.478;13.378;2024-01-16T04:56:04;-0.70;99.90
17381;DHT22;8808;52.478;13.378;2024-01-16T04:58:33;-0.80;99.90
17381;DHT22;8808;52.478;13.378;2024-01-16T05:00:59;-0.70;99.90
17381;DHT22;8808;52.478;13.378;2024-01-16T05:03:26;-0.80;99.90
17381;DHT22;8808;52.478;13.378;2024-01-16T05:05:53;-0.70;99.90
17381;DHT22;8808;52.478;13.378;2024-01-16T05:08:21;-0.80;99.90
17381;DHT22;8808;52.478;13.378;2024-01-16T05:10:48;-0.70;99.90
17381;DHT22;8808;52.478;13.378;2024-01-16T05:13:15;-0.80;99.90
17381;DHT22;8808;52.478;13.378;2024-01-16T05:15:44;-0.80;99.90
17381;DHT22;8808;52.478;13.378;2024-01-16T05:18:11;-0.80;99.90
17381;DHT22;8808;52.478;13.378;2024-01-16T05:20:38;-0.80;99.90
17381;DHT22;8808;52.478;13.378;2024-01-16T05:23:05;-0.70;99.90
17381;DHT22;8808;52.478;13.378;2024-01-16T05:25:32;-0.70;99.90
17381;DHT22;8808;52.478;13.378;2024-01-16T05:27:59;-0.60;99.90
17381;DHT22;8808;52.478;13.378;2024-01-16T05:30:26;-0.70;99.90
17381;DHT22;8808;52.478;13.378;2024-01-16T05:32:54;-0.70;99.90
17381;DHT22;8808;52.478;13.378;2024-01-16T05:35:21;-0.70;99.90
17381;DHT22;8808;52.478;13.378;2024-01-16T05:37:49;-0.70;99.90
17381;DHT22;8808;52.478;13.378;2024-01-16T05:40:16;-1.10;99.90
17381;DHT22;8808;52.478;13.378;2024-01-16T05:42:43;-1.00;99.90
17381;DHT22;8808;52.478;13.378;2024-01-16T05:45:11;-1.10;99.90
17381;DHT22;8808;52.478;13.378;2024-01-16T05:47:39;-0.90;99.90
17381;DHT22;8808;52.478;13.378;2024-01-16T05:50:08;-0.90;99.90
17381;DHT22;8808;52.478;13.378;2024-01-16T05:52:35;-0.90;99.90
17381;DHT22;8808;52.478;13.378;2024-01-16T05:55:03;-0.90;99.90
17381;DHT22;8808;52.478;13.378;2024-01-16T05:57:30;-1.10;99.90
17381;DHT22;8808;52.478;13.378;2024-01-16T05:59:59;-1.10;99.90
17381;DHT22;8808;52.478;13.378;2024-01-16T06:02:28;-1.10;99.90
17381;DHT22;8808;52.478;13.378;2024-01-16T06:04:55;-1.00;99.90
17381;DHT22;8808;52.478;13.378;2024-01-16T06:07:23;-1.00;99.90
17381;DHT22;8808;52.478;13.378;2024-01-16T06:09:50;-1.00;99.90
17381;DHT22;8808;52.478;13.378;2024-01-16T06:12:17;-0.90;99.90
17381;DHT22;8808;52.478;13.378;2024-01-16T06:14:44;-1.10;99.90
17381;DHT22;8808;52.478;13.378;2024-01-16T06:17:11;-1.10;99.90
17381;DHT22;8808;52.478;13.378;2024-01-16T06:19:38;-1.20;99.90
17381;DHT22;8808;52.478;13.378;2024-01-16T06:22:05;-1.30;99.90
17381;DHT22;8808;52.478;13.378;2024-01-16T06:24:33;-1.20;99.90
17381;DHT22;8808;52.478;13.378;2024-01-16T06:27:04;-1.10;99.90
17381;DHT22;8808;52.478;13.378;2024-01-16T06:29:31;-1.10;99.90
17381;DHT22;8808;52.478;13.378;2024-01-16T06:31:57;-1.20;99.90
17381;DHT22;8808;52.478;13.378;2024-01-16T06:34:24;-1.40;99.90
17381;DHT22;8808;52.478;13.378;2024-01-16T06:36:51;-1.30;99.90
17381;DHT22;8808;52.478;13.378;2024-01-16T06:39:18;-1.20;99.90
17381;DHT22;8808;52.478;13.378;2024-01-16T06:41:47;-1.20;99.90
17381;DHT22;8808;52.478;13.378;2024-01-16T06:44:14;-1.40;99.90
17381;DHT22;8808;52.478;13.378;2024-01-16T06:46:40;-1.40;99.90
17381;DHT22;8808;52.478;13.378;2024-01-16T06:49:07;-1.30;99.90
17381;DHT22;8808;52.478;13.378;2024-01-16T06:51:34;-1.00;99.90
17381;DHT22;8808;52.478;13.378;2024-01-16T06:54:01;-1.10;99.90
17381;DHT22;8808;52.478;13.378;2024-01-16T06:56:29;-1.00;99.90
17381;DHT22;8808;52.478;13.378;2024-01-16T06:58:56;-0.90;99.90
17381;DHT22;8808;52.478;13.378;2024-01-16T07:01:24;-0.90;99.90
17381;DHT22;8808;52.478;13.378;2024-01-16T07:03:51;-1.00;99.90
17381;DHT22;8808;52.478;13.378;2024-01-16T07:06:18;-0.90;99.90
17381;DHT22;8808;52.478;13.378;2024-01-16T07:08:46;-0.80;99.90
17381;DHT22;8808;52.478;13.378;2024-01-16T07:11:13;-0.80;99.90
17381;DHT22;8808;52.478;13.378;2024-01-16T07:13:40;-0.80;99.90
17381;DHT22;8808;52.478;13.378;2024-01-16T07:16:09;-0.70;99.90
17381;DHT22;8808;52.478;13.378;2024-01-16T07:18:37;-0.60;99.90
17381;DHT22;8808;52.478;13.378;2024-01-16T07:21:04;-0.70;99.90
17381;DHT22;8808;52.478;13.378;2024-01-16T07:23:31;-0.60;99.90
17381;DHT22;8808;52.478;13.378;2024-01-16T07:25:58;-0.60;99.90
17381;DHT22;8808;52.478;13.378;2024-01-16T07:28:24;-0.50;99.90
17381;DHT22;8808;52.478;13.378;2024-01-16T07:30:53;-0.50;99.90
17381;DHT22;8808;52.478;13.378;2024-01-16T07:33:22;-0.60;99.90
17381;DHT22;8808;52.478;13.378;2024-01-16T07:35:48;-0.60;99.90
17381;DHT22;8808;52.478;13.378;2024-01-16T07:38:15;-0.60;99.90
17381;DHT22;8808;52.478;13.378;2024-01-16T07:40:42;-0.60;99.90
17381;DHT22;8808;52.478;13.378;2024-01-16T07:43:09;-0.50;99.90
17381;DHT22;8808;52.478;13.378;2024-01-16T07:45:37;-0.60;99.90
17381;DHT22;8808;52.478;13.378;2024-01-16T07:48:04;-0.60;99.90
17381;DHT22;8808;52.478;13.378;2024-01-16T07:50:32;-0.60;99.90
17381;DHT22;8808;52.478;13.378;2024-01-16T07:52:59;-0.50;99.90
17381;DHT22;8808;52.478;13.378;2024-01-16T07:55:26;-0.40;99.90
17381;DHT22;8808;52.478;13.378;2024-01-16T07:57:54;-0.50;99.90
17381;DHT22;8808;52.478;13.378;2024-01-16T08:00:21;-0.40;99.90
17381;DHT22;8808;52.478;13.378;2024-01-16T08:02:48;-0.50;99.90
17381;DHT22;8808;52.478;13.378;2024-01-16T08:05:15;-0.40;99.90
17381;DHT22;8808;52.478;13.378;2024-01-16T08:07:44;-0.40;99.90
17381;DHT22;8808;52.478;13.378;2024-01-16T08:10:11;-0.30;99.90
17381;DHT22;8808;52.478;13.378;2024-01-16T08:12:38;-0.30;99.90
17381;DHT22;8808;52.478;13.378;2024-01-16T08:15:05;-0.30;99.90
17381;DHT22;8808;52.478;13.378;2024-01-16T08:17:33;-0.20;99.90
17381;DHT22;8808;52.478;13.378;2024-01-16T08:20:00;-0.30;99.90
17381;DHT22;8808;52.478;13.378;2024-01-16T08:22:27;-0.20;99.90
17381;DHT22;8808;52.478;13.378;2024-01-16T08:24:55;-0.20;99.90
17381;DHT22;8808;52.478;13.378;2024-01-16T08:27:22;-0.20;99.90
17381;DHT22;8808;52.478;13.378;2024-01-16T08:29:49;-0.10;99.90
17381;DHT22;8808;52.478;13.378;2024-01-16T08:32:16;-0.10;99.90
17381;DHT22;8808;52.478;13.378;2024-01-16T08:34:43;-0.10;99.90
17381;DHT22;8808;52.478;13.378;2024-01-16T08:37:10;-0.10;99.90
17381;DHT22;8808;52.478;13.378;2024-01-16T08:39:37;0.00;99.90
17381;DHT22;8808;52.478;13.378;2024-01-16T08:42:05;0.10;99.90
17381;DHT22;8808;52.478;13.378;2024-01-16T08:44:31;0.10;99.90
17381;DHT22;8808;52.478;13.378;2024-01-16T08:46:58;0.10;99.90
17381;DHT22;8808;52.478;13.378;2024-01-16T08:49:27;0.20;99.90
17381;DHT22;8808;52.478;13.378;2024-01-16T08:51:54;0.30;99.90
17381;DHT22;8808;52.478;13.378;2024-01-16T08:54:21;0.20;99.90
17381;DHT22;8808;52.478;13.378;2024-01-16T08:56:48;0.10;99.90
17381;DHT22;8808;52.478;13.378;2024-01-16T08:59:17;0.20;99.90
17381;DHT22;8808;52.478;13.378;2024-01-16T09:01:44;0.30;99.90
17381;DHT22;8808;52.478;13.378;2024-01-16T09:04:11;0.30;99.90
17381;DHT22;8808;52.478;13.378;2024-01-16T09:06:38;0.30;99.90
17381;DHT22;8808;52.478;13.378;2024-01-16T09:09:05;0.20;99.90
17381;DHT22;8808;52.478;13.378;2024-01-16T09:11:32;0.30;99.90
17381;DHT22;8808;52.478;13.378;2024-01-16T09:13:59;0.40;99.90
17381;DHT22;8808;52.478;13.378;2024-01-16T09:16:28;0.30;99.90
17381;DHT22;8808;52.478;13.378;2024-01-16T09:18:56;0.30;99.90
17381;DHT22;8808;52.478;13.378;2024-01-16T09:21:22;0.30;99.90
17381;DHT22;8808;52.478;13.378;2024-01-16T09:23:50;0.30;99.90
17381;DHT22;8808;52.478;13.378;2024-01-16T09:26:16;0.30;99.90
17381;DHT22;8808;52.478;13.378;2024-01-16T09:28:43;0.30;99.90
17381;DHT22;8808;52.478;13.378;2024-01-16T09:31:11;0.40;99.90
17381;DHT22;8808;52.478;13.378;2024-01-16T09:33:39;0.40;99.90
17381;DHT22;8808;52.478;13.378;2024-01-16T09:36:06;0.40;99.90
17381;DHT22;8808;52.478;13.378;2024-01-16T09:38:33;0.30;99.90
17381;DHT22;8808;52.478;13.378;2024-01-16T09:41:00;0.40;99.90
17381;DHT22;8808;52.478;13.378;2024-01-16T09:43:29;0.50;99.90
17381;DHT22;8808;52.478;13.378;2024-01-16T09:46:00;0.40;99.90
17381;DHT22;8808;52.478;13.378;2024-01-16T09:48:28;0.50;99.90
17381;DHT22;8808;52.478;13.378;2024-01-16T09:50:56;0.50;99.90
17381;DHT22;8808;52.478;13.378;2024-01-16T09:53:24;0.60;99.90
17381;DHT22;8808;52.478;13.378;2024-01-16T09:55:54;0.70;99.90
17381;DHT22;8808;52.478;13.378;2024-01-16T09:58:23;0.70;99.90
17381;DHT22;8808;52.478;13.378;2024-01-16T10:00:51;0.70;99.90
17381;DHT22;8808;52.478;13.378;2024-01-16T10:03:19;0.80;99.90
17381;DHT22;8808;52.478;13.378;2024-01-16T10:05:48;0.60;99.90
17381;DHT22;8808;52.478;13.378;2024-01-16T10:08:16;0.70;99.90
17381;DHT22;8808;52.478;13.378;2024-01-16T10:10:47;0.90;99.90
17381;DHT22;8808;52.478;13.378;2024-01-16T10:13:15;0.80;99.90
17381;DHT22;8808;52.478;13.378;2024-01-16T10:15:42;0.90;99.90
17381;DHT22;8808;52.478;13.378;2024-01-16T10:18:22;1.00;99.90
17381;DHT22;8808;52.478;13.378;2024-01-16T10:20:49;1.00;99.90
17381;DHT22;8808;52.478;13.378;2024-01-16T10:23:24;1.10;99.90
17381;DHT22;8808;52.478;13.378;2024-01-16T10:26:06;1.10;99.90
17381;DHT22;8808;52.478;13.378;2024-01-16T10:28:33;1.20;99.90
17381;DHT22;8808;52.478;13.378;2024-01-16T10:31:04;1.30;99.90
17381;DHT22;8808;52.478;13.378;2024-01-16T10:33:31;1.30;99.90
17381;DHT22;8808;52.478;13.378;2024-01-16T10:36:09;1.20;99.90
17381;DHT22;8808;52.478;13.378;2024-01-16T10:38:38;1.30;99.90
17381;DHT22;8808;52.478;13.378;2024-01-16T10:41:08;1.30;99.90
17381;DHT22;8808;52.478;13.378;2024-01-16T10:43:35;1.30;99.90
17381;DHT22;8808;52.478;13.378;2024-01-16T10:46:13;1.30;99.90
17381;DHT22;8808;52.478;13.378;2024-01-16T10:48:41;1.40;99.90
17381;DHT22;8808;52.478;13.378;2024-01-16T10:51:10;1.50;99.90
17381;DHT22;8808;52.478;13.378;2024-01-16T10:53:42;1.40;99.90
17381;DHT22;8808;52.478;13.378;2024-01-16T10:56:11;1.50;99.90
17381;DHT22;8808;52.478;13.378;2024-01-16T10:58:41;1.50;99.90
17381;DHT22;8808;52.478;13.378;2024-01-16T11:01:11;1.50;99.90
17381;DHT22;8808;52.478;13.378;2024-01-16T11:03:43;1.50;99.90
17381;DHT22;8808;52.478;13.378;2024-01-16T11:06:15;1.50;99.90
17381;DHT22;8808;52.478;13.378;2024-01-16T11:08:45;1.50;99.90
17381;DHT22;8808;52.478;13.378;2024-01-16T11:11:13;1.50;99.90
17381;DHT22;8808;52.478;13.378;2024-01-16T11:13:41;1.50;99.90
17381;DHT22;8808;52.478;13.378;2024-01-16T11:16:10;1.40;99.90
17381;DHT22;8808;52.478;13.378;2024-01-16T11:18:38;1.60;99.90
17381;DHT22;8808;52.478;13.378;2024-01-16T11:21:07;1.60;99.90
17381;DHT22;8808;52.478;13.378;2024-01-16T11:23:35;1.50;99.90
17381;DHT22;8808;52.478;13.378;2024-01-16T11:26:28;1.60;99.90
17381;DHT22;8808;52.478;13.378;2024-01-16T11:28:58;1.60;99.90
17381;DHT22;8808;52.478;13.378;2024-01-16T11:31:30;1.60;99.90
17381;DHT22;8808;52.478;13.378;2024-01-16T11:33:57;1.50;99.90
17381;DHT22;8808;52.478;13.378;2024-01-16T11:36:52;1.60;99.90
17381;DHT22;8808;52.478;13.378;2024-01-16T11:39:20;1.50;99.90
17381;DHT22;8808;52.478;13.378;2024-01-16T11:41:52;1.50;99.90
17381;DHT22;8808;52.478;13.378;2024-01-16T11:44:40;1.50;99.90
17381;DHT22;8808;52.478;13.378;2024-01-16T11:47:07;1.60;99.90
17381;DHT22;8808;52.478;13.378;2024-01-16T11:49:35;1.60;99.90
17381;DHT22;8808;52.478;13.378;2024-01-16T11:52:02;1.60;99.90
17381;DHT22;8808;52.478;13.378;2024-01-16T11:54:29;1.50;99.90
17381;DHT22;8808;52.478;13.378;2024-01-16T12:00:03;1.70;99.90
17381;DHT22;8808;52.478;13.378;2024-01-16T12:02:51;1.60;99.90
17381;DHT22;8808;52.478;13.378;2024-01-16T12:05:18;1.60;99.90
17381;DHT22;8808;52.478;13.378;2024-01-16T12:07:47;1.70;99.90
17381;DHT22;8808;52.478;13.378;2024-01-16T12:10:16;1.60;99.90
17381;DHT22;8808;52.478;13.378;2024-01-16T12:12:45;1.60;99.90
17381;DHT22;8808;52.478;13.378;2024-01-16T12:15:17;1.60;99.90
17381;DHT22;8808;52.478;13.378;2024-01-16T12:17:54;1.60;99.90
17381;DHT22;8808;52.478;13.378;2024-01-16T12:20:22;1.80;99.90
17381;DHT22;8808;52.478;13.378;2024-01-16T12:22:56;1.80;99.90
17381;DHT22;8808;52.478;13.378;2024-01-16T12:25:24;1.70;99.90
17381;DHT22;8808;52.478;13.378;2024-01-16T12:28:00;1.70;99.90
17381;DHT22;8808;52.478;13.378;2024-01-16T12:30:27;1.80;99.90
17381;DHT22;8808;52.478;13.378;2024-01-16T12:33:04;1.80;99.90
17381;DHT22;8808;52.478;13.378;2024-01-16T12:35:33;1.80;99.90
17381;DHT22;8808;52.478;13.378;2024-01-16T12:38:00;1.80;99.90
17381;DHT22;8808;52.478;13.378;2024-01-16T12:40:28;1.80;99.90
17381;DHT22;8808;52.478;13.378;2024-01-16T12:42:55;1.90;99.90
17381;DHT22;8808;52.478;13.378;2024-01-16T12:45:23;1.90;99.90
17381;DHT22;8808;52.478;13.378;2024-01-16T12:47:51;1.90;99.90
17381;DHT22;8808;52.478;13.378;2024-01-16T12:50:20;1.90;99.90
17381;DHT22;8808;52.478;13.378;2024-01-16T12:52:48;1.90;99.90
17381;DHT22;8808;52.478;13.378;2024-01-16T12:55:15;2.00;99.90
17381;DHT22;8808;52.478;13.378;2024-01-16T12:57:43;1.90;99.90
17381;DHT22;8808;52.478;13.378;2024-01-16T13:00:25;1.90;99.90
17381;DHT22;8808;52.478;13.378;2024-01-16T13:02:52;1.80;99.90
17381;DHT22;8808;52.478;13.378;2024-01-16T13:05:23;1.70;99.90
17381;DHT22;8808;52.478;13.378;2024-01-16T13:08:00;1.70;99.90
17381;DHT22;8808;52.478;13.378;2024-01-16T13:10:28;1.70;99.90
17381;DHT22;8808;52.478;13.378;2024-01-16T13:13:11;1.70;99.90
17381;DHT22;8808;52.478;13.378;2024-01-16T13:15:41;1.80;99.90
17381;DHT22;8808;52.478;13.378;2024-01-16T13:18:17;1.90;99.90
17381;DHT22;8808;52.478;13.378;2024-01-16T13:20:45;1.80;99.90
17381;DHT22;8808;52.478;13.378;2024-01-16T13:23:13;1.80;99.90
17381;DHT22;8808;52.478;13.378;2024-01-16T13:25:42;2.00;99.90
17381;DHT22;8808;52.478;13.378;2024-01-16T13:28:10;2.10;99.90
17381;DHT22;8808;52.478;13.378;2024-01-16T13:30:37;2.00;99.90
17381;DHT22;8808;52.478;13.378;2024-01-16T13:33:05;2.10;99.90
17381;DHT22;8808;52.478;13.378;2024-01-16T13:35:34;2.10;99.90
17381;DHT22;8808;52.478;13.378;2024-01-16T13:38:01;2.30;99.90
17381;DHT22;8808;52.478;13.378;2024-01-16T13:40:29;2.20;99.90
17381;DHT22;8808;52.478;13.378;2024-01-16T13:42:56;2.10;99.90
17381;DHT22;8808;52.478;13.378;2024-01-16T13:45:23;2.10;99.90
17381;DHT22;8808;52.478;13.378;2024-01-16T13:47:50;2.10;99.90
17381;DHT22;8808;52.478;13.378;2024-01-16T13:50:18;2.10;99.90
17381;DHT22;8808;52.478;13.378;2024-01-16T13:52:45;2.10;99.90
17381;DHT22;8808;52.478;13.378;2024-01-16T13:55:13;2.00;99.90
17381;DHT22;8808;52.478;13.378;2024-01-16T13:57:40;2.10;99.90
17381;DHT22;8808;52.478;13.378;2024-01-16T14:00:08;2.10;99.90
17381;DHT22;8808;52.478;13.378;2024-01-16T14:02:39;2.00;99.90
17381;DHT22;8808;52.478;13.378;2024-01-16T14:05:07;2.00;99.90
17381;DHT22;8808;52.478;13.378;2024-01-16T14:07:38;2.00;99.90
17381;DHT22;8808;52.478;13.378;2024-01-16T14:10:06;2.00;99.90
17381;DHT22;8808;52.478;13.378;2024-01-16T14:12:35;2.10;99.90
17381;DHT22;8808;52.478;13.378;2024-01-16T14:15:03;2.10;99.90
17381;DHT22;8808;52.478;13.378;2024-01-16T14:17:34;2.10;99.90
17381;DHT22;8808;52.478;13.378;2024-01-16T14:20:02;2.10;99.90
17381;DHT22;8808;52.478;13.378;2024-01-16T14:22:31;2.10;99.90
17381;DHT22;8808;52.478;13.378;2024-01-16T14:24:59;2.10;99.90
17381;DHT22;8808;52.478;13.378;2024-01-16T14:27:26;2.10;99.90
17381;DHT22;8808;52.478;13.378;2024-01-16T14:29:53;2.20;99.90
17381;DHT22;8808;52.478;13.378;2024-01-16T14:32:19;2.20;99.90
17381;DHT22;8808;52.478;13.378;2024-01-16T14:34:46;2.10;99.90
17381;DHT22;8808;52.478;13.378;2024-01-16T14:37:13;2.00;99.90
17381;DHT22;8808;52.478;13.378;2024-01-16T14:39:42;2.10;99.90
17381;DHT22;8808;52.478;13.378;2024-01-16T14:42:11;2.10;99.90
17381;DHT22;8808;52.478;13.378;2024-01-16T14:44:38;2.10;99.90
17381;DHT22;8808;52.478;13.378;2024-01-16T14:47:05;2.10;99.90
17381;DHT22;8808;52.478;13.378;2024-01-16T14:49:34;2.10;99.90
17381;DHT22;8808;52.478;13.378;2024-01-16T14:52:02;2.10;99.90
17381;DHT22;8808;52.478;13.378;2024-01-16T14:54:29;1.90;99.90
17381;DHT22;8808;52.478;13.378;2024-01-16T14:56:56;2.00;99.90
17381;DHT22;8808;52.478;13.378;2024-01-16T14:59:24;2.00;99.90
17381;DHT22;8808;52.478;13.378;2024-01-16T15:01:51;2.10;99.90
17381;DHT22;8808;52.478;13.378;2024-01-16T15:04:20;2.00;99.90
17381;DHT22;8808;52.478;13.378;2024-01-16T15:06:46;1.90;99.90
17381;DHT22;8808;52.478;13.378;2024-01-16T15:09:17;1.90;99.90
17381;DHT22;8808;52.478;13.378;2024-01-16T15:11:43;1.80;99.90
17381;DHT22;8808;52.478;13.378;2024-01-16T15:14:11;1.80;99.90
17381;DHT22;8808;52.478;13.378;2024-01-16T15:16:39;1.70;99.90
17381;DHT22;8808;52.478;13.378;2024-01-16T15:19:06;1.60;99.90
17381;DHT22;8808;52.478;13.378;2024-01-16T15:21:33;1.50;99.90
17381;DHT22;8808;52.478;13.378;2024-01-16T15:24:00;1.50;99.90
17381;DHT22;8808;52.478;13.378;2024-01-16T15:26:27;1.50;99.90
17381;DHT22;8808;52.478;13.378;2024-01-16T15:28:54;1.50;99.90
17381;DHT22;8808;52.478;13.378;2024-01-16T15:31:21;1.50;99.90
17381;DHT22;8808;52.478;13.378;2024-01-16T15:33:49;1.60;99.90
17381;DHT22;8808;52.478;13.378;2024-01-16T15:36:17;1.60;99.90
17381;DHT22;8808;52.478;13.378;2024-01-16T15:38:44;1.60;99.90
17381;DHT22;8808;52.478;13.378;2024-01-16T15:41:11;1.50;99.90
17381;DHT22;8808;52.478;13.378;2024-01-16T15:43:38;1.50;99.90
17381;DHT22;8808;52.478;13.378;2024-01-16T15:46:05;1.60;99.90
17381;DHT22;8808;52.478;13.378;2024-01-16T15:48:32;1.70;99.90
17381;DHT22;8808;52.478;13.378;2024-01-16T15:51:00;1.60;99.90